Main page
METAR-TAF:

METAR-TAF

Airports :

Itaituba Airport

Itaituba, Pará, Brazil

latitude: 04-15S, longitude: 056-00W, elevation: 34 m

Current weather observation

The report was made 3 hours and 19 minutes ago, at 21:00 UTC
Temperature 28°C
Humidity 84%
Pressure 1009 hPa
Visibility 10 km or more
Few clouds at a height of 2000 ft

METAR: SBIH 152100Z /////KT 9999 FEW020 28/25 Q1009

Time: 21:19 (00:19 UTC)

Forecast

The report was made 8 hours and 19 minutes ago, at 16:00 UTC
Forecast valid from 15 at 18 UTC to 16 at 06 UTC
Wind 5 kt from the East/Northeast
Visibility: 9000 m
Scattered clouds at a height of 2000 ft
Few clouds at a height of 2500 ft, Towering cumulus.
Becoming
from 15 at 22 UTC to 15 at 24 UTC
Visibility 10 km or more
Few clouds at a height of 2000 ft

TAF: SBIH 151600Z 1518/1606 07005KT 9000 SCT020 FEW025TCU TX32/1518Z TN24/1606Z BECMG 1522/1524 9999 FEW020 RMK PEM

Weather observations and forecasts of more than 4000 airports (METAR and TAF reports).

The available stations are represented by yellow and red dots on the map.

Hover mouse over dot to see the name of the station.

Then click to see weather observations and forecasts.

To change the map : click on the green buttons with a black cross to zoom in, on the green button with a dash to zoom out, or on the green arrows for adjacent maps.


METAR-TAF: